createdAt,value
2017-10-28T00:01:15.379Z,6.60
2017-10-28T00:03:42.940Z,6.50
2017-10-28T00:06:10.468Z,6.40
2017-10-28T00:08:38.783Z,6.30
2017-10-28T00:11:06.330Z,6.30
2017-10-28T00:13:33.897Z,6.20
2017-10-28T00:16:01.422Z,6.20
2017-10-28T00:18:29.752Z,6.20
2017-10-28T00:20:57.288Z,6.20
2017-10-28T00:23:24.848Z,6.10
2017-10-28T00:25:52.378Z,6.10
2017-10-28T00:28:20.674Z,6.00
2017-10-28T00:30:53.940Z,6.00
2017-10-28T00:33:27.947Z,5.90
2017-10-28T00:36:01.120Z,5.90
2017-10-28T00:38:28.652Z,5.90
2017-10-28T00:40:56.215Z,5.80
2017-10-28T00:43:23.740Z,5.80
2017-10-28T00:45:52.060Z,5.70
2017-10-28T00:48:19.588Z,5.70
2017-10-28T00:50:47.146Z,5.60
2017-10-28T00:53:14.670Z,5.60
2017-10-28T00:55:42.237Z,5.60
2017-10-28T00:58:10.540Z,5.60
2017-10-28T01:00:38.096Z,5.50
2017-10-28T01:03:05.627Z,5.50
2017-10-28T01:05:33.174Z,5.60
2017-10-28T01:08:00.703Z,5.60
2017-10-28T01:10:28.256Z,5.60
2017-10-28T01:12:55.782Z,5.50
2017-10-28T01:15:24.098Z,5.50
2017-10-28T01:17:51.638Z,5.50
2017-10-28T01:20:19.186Z,5.60
2017-10-28T01:22:46.726Z,5.60
2017-10-28T01:25:15.053Z,5.70
2017-10-28T01:27:42.574Z,5.60
2017-10-28T01:30:10.894Z,5.60
2017-10-28T01:32:38.422Z,5.60
2017-10-28T01:35:05.978Z,5.60
2017-10-28T01:37:34.263Z,5.30
2017-10-28T01:40:01.825Z,5.30
2017-10-28T01:42:29.353Z,5.30
2017-10-28T01:44:56.907Z,5.10
2017-10-28T01:47:24.434Z,5.10
2017-10-28T01:49:51.987Z,5.10
2017-10-28T01:52:19.519Z,5.00
2017-10-28T01:54:47.074Z,5.10
2017-10-28T01:57:15.361Z,5.10
2017-10-28T01:59:42.910Z,5.10
2017-10-28T02:02:10.454Z,5.10
2017-10-28T02:04:38.775Z,5.10
2017-10-28T02:07:06.300Z,5.10
2017-10-28T02:09:34.599Z,5.10
2017-10-28T02:12:02.164Z,5.10
2017-10-28T02:14:29.703Z,5.20
2017-10-28T02:16:57.272Z,5.30
2017-10-28T02:19:24.800Z,5.30
2017-10-28T02:21:52.359Z,5.20
2017-10-28T02:24:19.887Z,5.20
2017-10-28T02:26:47.445Z,5.10
2017-10-28T02:29:14.971Z,5.10
2017-10-28T02:31:42.526Z,5.00
2017-10-28T02:34:10.060Z,5.00
2017-10-28T02:36:37.620Z,5.20
2017-10-28T02:39:05.935Z,5.60
2017-10-28T02:41:33.487Z,5.60
2017-10-28T02:44:01.020Z,5.60
2017-10-28T02:46:29.346Z,5.90
2017-10-28T02:48:56.891Z,5.90
2017-10-28T02:51:24.446Z,6.00
2017-10-28T02:53:51.987Z,6.00
2017-10-28T02:56:20.309Z,6.10
2017-10-28T02:58:47.846Z,6.10
2017-10-28T03:01:15.403Z,6.20
2017-10-28T03:03:42.931Z,6.20
2017-10-28T03:06:11.258Z,6.30
2017-10-28T03:08:38.792Z,6.20
2017-10-28T03:11:06.344Z,6.30
2017-10-28T03:13:34.643Z,6.50
2017-10-28T03:16:02.199Z,6.40
2017-10-28T03:18:29.736Z,6.50
2017-10-28T03:20:58.063Z,6.70
2017-10-28T03:23:25.607Z,6.70
2017-10-28T03:25:53.172Z,6.60
2017-10-28T03:28:20.713Z,6.50
2017-10-28T03:30:48.285Z,6.50
2017-10-28T03:33:15.819Z,6.40
2017-10-28T03:35:44.150Z,6.20
2017-10-28T03:38:11.685Z,6.20
2017-10-28T03:40:39.247Z,6.10
2017-10-28T03:43:06.792Z,6.10
2017-10-28T03:45:34.347Z,6.10
2017-10-28T03:48:01.875Z,6.10
2017-10-28T03:50:29.431Z,6.10
2017-10-28T03:52:56.966Z,6.20
2017-10-28T03:55:24.518Z,6.10
2017-10-28T03:57:52.048Z,5.90
2017-10-28T04:00:19.598Z,5.80
2017-10-28T04:02:47.138Z,5.70
2017-10-28T04:05:15.475Z,5.60
2017-10-28T04:07:43.018Z,5.60
2017-10-28T04:10:10.591Z,5.60
2017-10-28T04:12:38.123Z,5.60
2017-10-28T04:15:05.658Z,5.70
2017-10-28T04:17:33.983Z,5.60
2017-10-28T04:20:01.516Z,5.60
2017-10-28T04:22:29.080Z,5.60
2017-10-28T04:24:56.611Z,5.60
2017-10-28T04:27:24.939Z,5.70
2017-10-28T04:29:52.459Z,5.70
2017-10-28T04:32:20.778Z,5.70
2017-10-28T04:34:48.318Z,5.70
2017-10-28T04:37:15.872Z,5.80
2017-10-28T04:39:43.404Z,5.80
2017-10-28T04:42:11.736Z,5.80
2017-10-28T04:44:39.281Z,5.80
2017-10-28T04:47:06.840Z,5.80
2017-10-28T04:49:34.367Z,5.80
2017-10-28T04:52:02.686Z,5.80
2017-10-28T04:54:30.220Z,5.70
2017-10-28T04:56:57.779Z,5.70
2017-10-28T04:59:25.311Z,5.70
2017-10-28T05:01:52.871Z,5.70
2017-10-28T05:04:21.176Z,5.80
2017-10-28T05:06:48.744Z,5.70
2017-10-28T05:09:16.277Z,5.80
2017-10-28T05:11:44.608Z,5.80
2017-10-28T05:14:12.146Z,5.80
2017-10-28T05:16:39.698Z,5.80
2017-10-28T05:19:07.231Z,5.80
2017-10-28T05:21:35.551Z,5.90
2017-10-28T05:24:03.080Z,5.90
2017-10-28T05:26:31.394Z,5.80
2017-10-28T05:28:58.923Z,5.80
2017-10-28T05:31:26.486Z,5.80
2017-10-28T05:33:54.019Z,5.70
2017-10-28T05:36:22.346Z,5.60
2017-10-28T05:38:49.878Z,5.60
2017-10-28T05:41:17.435Z,5.50
2017-10-28T05:43:44.996Z,5.50
2017-10-28T05:46:12.550Z,5.40
2017-10-28T05:48:40.082Z,5.30
2017-10-28T05:51:07.651Z,5.30
2017-10-28T05:53:35.187Z,5.20
2017-10-28T05:56:02.742Z,5.20
2017-10-28T05:58:30.283Z,5.10
2017-10-28T06:00:57.849Z,5.00
2017-10-28T06:03:25.407Z,4.90
2017-10-28T06:05:52.963Z,4.80
2017-10-28T06:08:20.498Z,4.70
2017-10-28T06:10:48.070Z,4.80
2017-10-28T06:13:15.606Z,4.80
2017-10-28T06:15:43.926Z,4.80
2017-10-28T06:18:11.455Z,4.80
2017-10-28T06:20:39.010Z,4.80
2017-10-28T06:23:06.546Z,4.90
2017-10-28T06:25:34.076Z,5.00
2017-10-28T06:28:01.636Z,5.00
2017-10-28T06:30:29.162Z,5.00
2017-10-28T06:32:56.719Z,5.00
2017-10-28T06:35:24.281Z,5.10
2017-10-28T06:37:51.835Z,5.10
2017-10-28T06:40:19.370Z,5.10
2017-10-28T06:42:47.695Z,5.20
2017-10-28T06:45:15.235Z,5.10
2017-10-28T06:47:42.791Z,5.20
2017-10-28T06:50:10.318Z,5.30
2017-10-28T06:52:37.866Z,5.30
2017-10-28T06:55:05.408Z,5.40
2017-10-28T06:57:32.966Z,5.40
2017-10-28T07:00:00.500Z,5.60
2017-10-28T07:02:28.060Z,5.60
2017-10-28T07:04:55.594Z,5.70
2017-10-28T07:07:23.918Z,5.70
2017-10-28T07:09:51.455Z,5.70
2017-10-28T07:12:19.015Z,5.70
2017-10-28T07:14:46.547Z,5.80
2017-10-28T07:17:14.867Z,6.00
2017-10-28T07:19:42.404Z,6.00
2017-10-28T07:22:09.966Z,5.90
2017-10-28T07:24:37.490Z,6.00
2017-10-28T07:27:05.051Z,6.00
2017-10-28T07:29:32.579Z,6.10
2017-10-28T07:32:00.127Z,6.00
2017-10-28T07:34:27.666Z,6.10
2017-10-28T07:36:55.224Z,6.20
2017-10-28T07:39:22.753Z,6.20
2017-10-28T07:41:51.072Z,6.30
2017-10-28T07:44:18.620Z,6.30
2017-10-28T07:46:46.186Z,6.30
2017-10-28T07:49:13.718Z,6.40
2017-10-28T07:51:42.034Z,6.30
2017-10-28T07:54:09.567Z,6.30
2017-10-28T07:56:37.115Z,6.20
2017-10-28T07:59:05.411Z,6.40
2017-10-28T08:01:32.967Z,6.30
2017-10-28T08:04:06.234Z,6.40
2017-10-28T08:06:33.786Z,6.50
2017-10-28T08:09:01.327Z,6.60
2017-10-28T08:11:28.887Z,6.50
2017-10-28T08:13:56.419Z,6.60
2017-10-28T08:16:23.969Z,6.60
2017-10-28T08:18:51.494Z,6.60
2017-10-28T08:21:19.819Z,6.80
2017-10-28T08:23:47.348Z,6.80
2017-10-28T08:26:15.672Z,6.90
2017-10-28T08:28:43.209Z,6.90
2017-10-28T08:31:10.734Z,7.00
2017-10-28T08:33:39.055Z,7.20
2017-10-28T08:36:06.586Z,7.20
2017-10-28T08:38:35.298Z,7.40
2017-10-28T08:41:04.338Z,7.40
2017-10-28T08:43:32.722Z,7.50
2017-10-28T08:46:00.254Z,7.50
2017-10-28T08:48:27.815Z,7.50
2017-10-28T08:50:55.344Z,7.60
2017-10-28T08:53:22.898Z,7.50
2017-10-28T08:55:50.586Z,7.60
2017-10-28T08:58:18.676Z,7.40
2017-10-28T09:00:46.283Z,7.50
2017-10-28T09:03:13.847Z,7.60
2017-10-28T09:05:41.380Z,7.80
2017-10-28T09:08:10.111Z,8.00
2017-10-28T09:10:37.674Z,8.00
2017-10-28T09:13:05.219Z,8.10
2017-10-28T09:15:32.746Z,8.10
2017-10-28T09:18:01.072Z,8.20
2017-10-28T09:20:28.599Z,8.20
2017-10-28T09:22:56.150Z,8.10
2017-10-28T09:25:24.444Z,8.20
2017-10-28T09:27:52.001Z,8.10
2017-10-28T09:30:19.539Z,8.00
2017-10-28T09:32:47.857Z,8.30
2017-10-28T09:35:15.380Z,8.20
2017-10-28T09:37:43.723Z,8.40
2017-10-28T09:40:11.258Z,8.40
2017-10-28T09:42:38.820Z,8.50
2017-10-28T09:45:06.347Z,8.60
2017-10-28T09:47:34.669Z,8.60
2017-10-28T09:50:02.194Z,8.60
2017-10-28T09:52:29.753Z,8.60
2017-10-28T09:54:57.280Z,8.70
2017-10-28T09:57:24.845Z,8.50
2017-10-28T09:59:52.368Z,8.60
2017-10-28T10:02:19.924Z,8.60
2017-10-28T10:04:47.455Z,8.50
2017-10-28T10:07:15.011Z,8.50
2017-10-28T10:09:42.548Z,8.40
2017-10-28T10:12:10.876Z,8.40
2017-10-28T10:14:38.398Z,8.40
2017-10-28T10:17:06.706Z,8.60
2017-10-28T10:19:34.227Z,8.60
2017-10-28T10:22:02.543Z,8.80
2017-10-28T10:24:30.071Z,8.80
2017-10-28T10:26:58.383Z,9.10
2017-10-28T10:29:25.918Z,9.00
2017-10-28T10:31:53.489Z,9.30
2017-10-28T10:34:21.019Z,9.50
2017-10-28T10:36:49.349Z,9.40
2017-10-28T10:39:17.630Z,9.30
2017-10-28T10:41:45.154Z,9.30
2017-10-28T10:44:12.710Z,9.30
2017-10-28T10:46:40.238Z,9.20
2017-10-28T10:49:07.796Z,9.20
2017-10-28T10:51:35.323Z,9.20
2017-10-28T10:54:02.871Z,9.10
2017-10-28T10:56:30.404Z,9.10
2017-10-28T10:58:57.956Z,9.00
2017-10-28T11:01:26.248Z,9.20
2017-10-28T11:03:53.799Z,9.10
2017-10-28T11:06:21.453Z,9.10
2017-10-28T11:08:49.023Z,9.30
2017-10-28T11:11:16.562Z,9.50
2017-10-28T11:13:44.889Z,9.70
2017-10-28T11:16:12.423Z,9.60
2017-10-28T11:18:39.979Z,9.80
2017-10-28T11:21:07.512Z,10.00
2017-10-28T11:23:35.071Z,10.00
2017-10-28T11:26:03.370Z,10.20
2017-10-28T11:28:30.923Z,10.20
2017-10-28T11:30:59.219Z,10.10
2017-10-28T11:33:26.770Z,10.10
2017-10-28T11:35:54.298Z,9.80
2017-10-28T11:38:21.852Z,9.60
2017-10-28T11:40:49.384Z,9.60
2017-10-28T11:43:16.963Z,9.60
2017-10-28T11:45:44.496Z,9.50
2017-10-28T11:48:12.049Z,9.60
2017-10-28T11:50:39.575Z,9.60
2017-10-28T11:53:07.901Z,9.60
2017-10-28T11:55:35.422Z,9.60
2017-10-28T11:58:02.971Z,9.50
2017-10-28T12:00:31.263Z,9.70
2017-10-28T12:02:58.815Z,9.70
2017-10-28T12:05:27.102Z,9.60
2017-10-28T12:07:54.643Z,9.60
2017-10-28T12:10:22.932Z,9.70
2017-10-28T12:12:50.496Z,9.60
2017-10-28T12:15:18.027Z,9.80
2017-10-28T12:17:45.591Z,9.90
2017-10-28T12:20:13.113Z,9.90
2017-10-28T12:22:40.670Z,9.80
2017-10-28T12:25:08.196Z,9.90
2017-10-28T12:27:35.751Z,10.00
2017-10-28T12:30:03.283Z,10.00
2017-10-28T12:32:30.843Z,9.80
2017-10-28T12:34:59.146Z,10.00
2017-10-28T12:37:27.467Z,10.10
2017-10-28T12:39:55.012Z,10.00
2017-10-28T12:42:22.558Z,10.00
2017-10-28T12:44:50.081Z,10.00
2017-10-28T12:47:18.411Z,10.10
2017-10-28T12:49:45.944Z,10.10
2017-10-28T12:52:13.475Z,10.10
2017-10-28T12:54:41.043Z,10.00
2017-10-28T12:57:09.349Z,10.20
2017-10-28T12:59:36.923Z,10.20
2017-10-28T13:02:04.452Z,10.20
2017-10-28T13:04:32.768Z,10.10
2017-10-28T13:07:00.309Z,10.10
2017-10-28T13:09:27.865Z,10.20
2017-10-28T13:11:55.403Z,10.20
2017-10-28T13:14:23.726Z,10.20
2017-10-28T13:16:51.249Z,10.10
2017-10-28T13:19:19.571Z,10.10
2017-10-28T13:21:47.097Z,10.10
2017-10-28T13:24:14.669Z,10.10
2017-10-28T13:26:42.209Z,10.10
2017-10-28T13:29:09.768Z,10.10
2017-10-28T13:31:37.303Z,10.10
2017-10-28T13:34:04.861Z,10.00
2017-10-28T13:36:32.391Z,10.10
2017-10-28T13:38:59.947Z,10.10
2017-10-28T13:41:27.555Z,10.10
2017-10-28T13:43:55.875Z,10.10
2017-10-28T13:46:23.402Z,10.10
2017-10-28T13:48:50.959Z,10.00
2017-10-28T13:51:18.498Z,10.10
2017-10-28T13:53:46.055Z,10.00
2017-10-28T13:56:13.582Z,10.00
2017-10-28T13:58:41.130Z,10.00
2017-10-28T14:01:08.659Z,10.00
2017-10-28T14:03:36.212Z,10.20
2017-10-28T14:06:04.503Z,10.10
2017-10-28T14:08:32.059Z,10.10
2017-10-28T14:10:59.595Z,10.00
2017-10-28T14:13:27.907Z,10.10
2017-10-28T14:15:55.447Z,10.10
2017-10-28T14:18:23.763Z,10.20
2017-10-28T14:20:51.291Z,10.20
2017-10-28T14:23:18.847Z,10.20
2017-10-28T14:25:47.139Z,10.10
2017-10-28T14:28:14.693Z,10.10
2017-10-28T14:30:42.217Z,10.20
2017-10-28T14:33:09.772Z,10.30
2017-10-28T14:35:37.304Z,10.20
2017-10-28T14:38:04.855Z,10.20
2017-10-28T14:40:32.384Z,10.00
2017-10-28T14:42:59.943Z,10.20
2017-10-28T14:45:27.483Z,10.00
2017-10-28T14:47:55.799Z,9.90
2017-10-28T14:50:23.323Z,9.90
2017-10-28T14:52:51.643Z,9.90
2017-10-28T14:55:19.164Z,9.90
2017-10-28T14:57:47.481Z,9.80
2017-10-28T15:00:15.007Z,9.70
2017-10-28T15:02:43.302Z,9.70
2017-10-28T15:05:10.855Z,9.70
2017-10-28T15:07:38.387Z,9.70
2017-10-28T15:10:05.938Z,9.60
2017-10-28T15:12:33.459Z,9.60
2017-10-28T15:15:01.010Z,9.60
2017-10-28T15:17:28.530Z,9.60
2017-10-28T15:19:56.846Z,9.60
2017-10-28T15:22:24.380Z,9.60
2017-10-28T15:24:52.690Z,9.50
2017-10-28T15:27:20.207Z,9.50
2017-10-28T15:29:48.531Z,9.50
2017-10-28T15:32:16.055Z,9.50
2017-10-28T15:34:44.368Z,9.50
2017-10-28T15:37:11.903Z,9.40
2017-10-28T15:39:39.453Z,9.50
2017-10-28T15:42:06.986Z,9.50
2017-10-28T15:44:34.536Z,9.40
2017-10-28T15:47:02.077Z,9.40
2017-10-28T15:49:29.638Z,9.30
2017-10-28T15:51:57.163Z,9.30
2017-10-28T15:54:24.724Z,9.30
2017-10-28T15:56:52.264Z,9.30
2017-10-28T15:59:20.592Z,9.30
2017-10-28T16:01:48.137Z,9.30
2017-10-28T16:04:15.676Z,9.30
2017-10-28T16:06:43.238Z,9.30
2017-10-28T16:09:10.770Z,9.30
2017-10-28T16:11:39.087Z,9.20
2017-10-28T16:14:06.616Z,9.20
2017-10-28T16:16:34.931Z,9.20
2017-10-28T16:19:02.468Z,9.20
2017-10-28T16:21:30.019Z,9.20
2017-10-28T16:23:57.551Z,9.20
2017-10-28T16:26:25.099Z,9.20
2017-10-28T16:28:52.630Z,9.30
2017-10-28T16:31:20.187Z,9.20
2017-10-28T16:33:47.721Z,9.30
2017-10-28T16:36:15.276Z,9.20
2017-10-28T16:38:42.811Z,9.20
2017-10-28T16:41:10.371Z,9.20
2017-10-28T16:43:37.897Z,9.20
2017-10-28T16:46:05.443Z,9.20
2017-10-28T16:48:32.963Z,9.20
2017-10-28T16:51:01.283Z,9.20
2017-10-28T16:53:28.807Z,9.20
2017-10-28T16:55:57.122Z,9.20
2017-10-28T16:58:24.652Z,9.20
2017-10-28T17:00:52.210Z,9.20
2017-10-28T17:03:19.767Z,9.30
2017-10-28T17:05:47.290Z,9.30
2017-10-28T17:08:14.860Z,9.30
2017-10-28T17:10:42.387Z,9.20
2017-10-28T17:13:09.939Z,9.30
2017-10-28T17:15:37.471Z,9.30
2017-10-28T17:18:05.023Z,9.30
2017-10-28T17:20:33.323Z,9.20
2017-10-28T17:23:00.878Z,9.20
2017-10-28T17:25:28.404Z,9.20
2017-10-28T17:27:56.749Z,9.30
2017-10-28T17:30:24.274Z,9.30
2017-10-28T17:32:51.840Z,9.30
2017-10-28T17:35:19.379Z,9.30
2017-10-28T17:37:46.947Z,9.30
2017-10-28T17:40:14.488Z,9.30
2017-10-28T17:42:42.815Z,9.30
2017-10-28T17:45:10.351Z,9.30
2017-10-28T17:47:37.910Z,9.30
2017-10-28T17:50:05.440Z,9.30
2017-10-28T17:52:33.740Z,9.40
2017-10-28T17:55:01.295Z,9.30
2017-10-28T17:57:28.879Z,9.40
2017-10-28T17:59:56.437Z,9.40
2017-10-28T18:02:23.981Z,9.40
2017-10-28T18:04:51.543Z,9.40
2017-10-28T18:07:19.079Z,9.40
2017-10-28T18:09:47.412Z,9.40
2017-10-28T18:12:14.940Z,9.30
2017-10-28T18:14:42.494Z,9.40
2017-10-28T18:17:10.032Z,9.50
2017-10-28T18:19:38.356Z,9.50
2017-10-28T18:22:05.887Z,9.50
2017-10-28T18:24:33.450Z,9.50
2017-10-28T18:27:00.994Z,9.50
2017-10-28T18:29:29.318Z,9.50
2017-10-28T18:31:56.848Z,9.40
2017-10-28T18:34:24.421Z,9.50
2017-10-28T18:36:51.963Z,9.50
2017-10-28T18:39:19.526Z,9.50
2017-10-28T18:41:47.066Z,9.50
2017-10-28T18:44:15.387Z,9.50
2017-10-28T18:46:42.924Z,9.50
2017-10-28T18:49:10.488Z,9.50
2017-10-28T18:51:38.017Z,9.60
2017-10-28T18:54:06.344Z,9.50
2017-10-28T18:56:33.875Z,9.50
2017-10-28T18:59:01.436Z,9.60
2017-10-28T19:01:28.967Z,9.50
2017-10-28T19:03:56.531Z,9.50
2017-10-28T19:06:24.836Z,9.50
2017-10-28T19:08:52.389Z,9.50
2017-10-28T19:11:19.928Z,9.50
2017-10-28T19:13:48.282Z,9.50
2017-10-28T19:16:15.819Z,9.50
2017-10-28T19:18:43.343Z,9.50
2017-10-28T19:21:11.022Z,9.50
2017-10-28T19:23:38.555Z,9.50
2017-10-28T19:26:06.879Z,9.50
2017-10-28T19:28:34.415Z,9.50
2017-10-28T19:31:01.979Z,9.60
2017-10-28T19:33:29.513Z,9.60
2017-10-28T19:35:57.831Z,9.60
2017-10-28T19:38:25.364Z,9.50
2017-10-28T19:40:52.923Z,9.60
2017-10-28T19:43:20.459Z,9.60
2017-10-28T19:45:48.798Z,9.60
2017-10-28T19:48:17.092Z,9.50
2017-10-28T19:50:44.654Z,9.50
2017-10-28T19:53:12.181Z,9.50
2017-10-28T19:55:39.736Z,9.40
2017-10-28T19:58:07.267Z,9.40
2017-10-28T20:00:35.595Z,9.40
2017-10-28T20:03:03.147Z,9.30
2017-10-28T20:05:30.703Z,9.40
2017-10-28T20:07:58.243Z,9.40
2017-10-28T20:10:25.799Z,9.40
2017-10-28T20:12:53.336Z,9.50
2017-10-28T20:15:21.659Z,9.50
2017-10-28T20:17:49.188Z,9.50
2017-10-28T20:20:16.745Z,9.50
2017-10-28T20:22:44.283Z,9.60
2017-10-28T20:25:11.845Z,9.50
2017-10-28T20:27:40.139Z,9.50
2017-10-28T20:30:08.462Z,9.50
2017-10-28T20:32:35.996Z,9.50
2017-10-28T20:35:03.559Z,9.50
2017-10-28T20:37:31.091Z,9.50
2017-10-28T20:39:59.419Z,9.40
2017-10-28T20:42:26.952Z,9.40
2017-10-28T20:44:54.521Z,9.30
2017-10-28T20:47:22.055Z,9.20
2017-10-28T20:49:49.722Z,9.20
2017-10-28T20:52:17.256Z,9.20
2017-10-28T20:54:45.584Z,9.00
2017-10-28T20:57:13.123Z,9.00
2017-10-28T20:59:40.683Z,9.00
2017-10-28T21:02:08.232Z,9.00
2017-10-28T21:04:35.787Z,9.10
2017-10-28T21:07:04.080Z,9.00
2017-10-28T21:09:31.661Z,9.00
2017-10-28T21:11:59.202Z,9.00
2017-10-28T21:14:26.763Z,8.90
2017-10-28T21:19:47.791Z,8.90
2017-10-28T21:22:15.367Z,8.90
2017-10-28T21:24:42.927Z,8.80
2017-10-28T21:27:10.462Z,8.90
2017-10-28T21:29:38.023Z,8.90
2017-10-28T21:32:05.563Z,8.90
2017-10-28T21:34:33.904Z,8.90
2017-10-28T21:37:01.428Z,8.90
2017-10-28T21:39:28.987Z,9.00
2017-10-28T21:41:56.532Z,9.00
2017-10-28T21:44:24.103Z,9.00
2017-10-28T21:46:51.643Z,9.00
2017-10-28T21:49:19.952Z,9.00
2017-10-28T21:51:47.522Z,9.00
2017-10-28T21:54:15.056Z,9.00
2017-10-28T21:56:42.637Z,9.00
2017-10-28T21:59:10.187Z,9.00
2017-10-28T22:01:37.743Z,9.00
2017-10-28T22:04:05.274Z,9.10
2017-10-28T22:06:33.649Z,9.10
2017-10-28T22:09:01.951Z,9.10
2017-10-28T22:11:29.508Z,9.10
2017-10-28T22:13:57.040Z,9.10
2017-10-28T22:16:24.611Z,9.20
2017-10-28T22:18:52.918Z,9.20
2017-10-28T22:21:20.475Z,9.20
2017-10-28T22:23:48.018Z,9.20
2017-10-28T22:26:16.338Z,9.20
2017-10-28T22:28:44.634Z,9.20
2017-10-28T22:51:45.999Z,8.90
2017-10-28T22:54:19.543Z,8.90
2017-10-28T22:56:47.091Z,8.90
2017-10-28T22:59:14.635Z,8.90
2017-10-28T23:01:42.206Z,8.90
2017-10-28T23:04:09.738Z,8.90
2017-10-28T23:06:43.406Z,8.90
2017-10-28T23:09:11.700Z,8.90
2017-10-28T23:11:39.262Z,8.90
2017-10-28T23:14:06.791Z,8.90
2017-10-28T23:16:35.111Z,8.90
2017-10-28T23:19:02.641Z,8.90
2017-10-28T23:21:30.210Z,8.90
2017-10-28T23:23:57.739Z,8.90
2017-10-28T23:26:25.315Z,8.90
2017-10-28T23:28:53.611Z,8.90
2017-10-28T23:31:21.168Z,8.90
2017-10-28T23:33:48.704Z,8.90
2017-10-28T23:36:17.026Z,8.90
2017-10-28T23:38:44.559Z,8.90
2017-10-28T23:41:12.123Z,9.00
2017-10-28T23:43:39.668Z,9.00
2017-10-28T23:46:07.987Z,8.90
2017-10-28T23:48:35.524Z,8.90
2017-10-28T23:51:03.086Z,8.90
2017-10-28T23:53:30.618Z,9.00
2017-10-28T23:55:58.947Z,9.00
2017-10-28T23:58:26.478Z,8.90
